Time;durP1;ratioP1;P1;durP2;ratioP2;P2;SDS_P1;SDS_P2;PMS_P1;PMS_P2;Temp;Humidity;BMP_temperature;BMP_pressure;BME280_temperature;BME280_humidity;BME280_pressure;Samples;Min_cycle;Max_cycle;Signal;HPM_P1;HPM_P2
2021/06/02 00:00:22;;;;;;;5.50;3.73;;;23.10;38.00;;;;;;4983406;28;20807;-45
2021/06/02 00:02:55;;;;;;;4.20;3.80;;;23.00;38.00;;;;;;4983795;28;20199;-45
2021/06/02 00:05:22;;;;;;;4.13;3.83;;;23.00;38.20;;;;;;4988446;28;20445;-47
2021/06/02 00:07:48;;;;;;;5.00;4.50;;;22.90;38.30;;;;;;4989340;28;20503;-46
2021/06/02 00:10:16;;;;;;;5.60;4.00;;;23.00;38.30;;;;;;4980825;28;20998;-47
2021/06/02 00:12:42;;;;;;;4.30;3.90;;;22.90;38.30;;;;;;4986849;28;20565;-43
2021/06/02 00:15:09;;;;;;;4.53;4.13;;;22.90;38.50;;;;;;4984165;28;20446;-46
2021/06/02 00:17:35;;;;;;;3.67;3.37;;;22.90;38.90;;;;;;4987595;28;20835;-47
2021/06/02 00:20:05;;;;;;;3.83;3.53;;;22.80;38.30;;;;;;4990575;28;20446;-47
2021/06/02 00:22:31;;;;;;;4.00;3.70;;;22.80;38.20;;;;;;4991790;28;20655;-45
2021/06/02 00:24:57;;;;;;;3.40;3.10;;;22.70;38.40;;;;;;4987982;28;20438;-47
2021/06/02 00:27:23;;;;;;;5.50;3.60;;;22.70;38.40;;;;;;4988353;28;20197;-45
2021/06/02 00:29:50;;;;;;;3.70;3.40;;;22.60;38.40;;;;;;4991076;28;20194;-45
2021/06/02 00:32:19;;;;;;;5.27;3.80;;;22.60;38.40;;;;;;4988921;28;20512;-48
2021/06/02 00:34:47;;;;;;;4.30;3.47;;;22.60;38.40;;;;;;4990716;28;20442;-47
2021/06/02 00:37:13;;;;;;;5.87;3.30;;;22.60;38.30;;;;;;4989067;28;20449;-46
2021/06/02 00:39:41;;;;;;;8.13;4.17;;;22.60;38.30;;;;;;4992390;28;20434;-47
2021/06/02 00:42:06;;;;;;;3.53;3.23;;;22.60;38.40;;;;;;4985205;28;20960;-47
2021/06/02 00:44:32;;;;;;;7.07;4.70;;;22.50;38.40;;;;;;4985067;28;20438;-47
2021/06/02 00:46:59;;;;;;;3.93;3.60;;;22.50;38.40;;;;;;4987446;28;20195;-44
2021/06/02 00:49:26;;;;;;;7.40;3.47;;;22.40;38.50;;;;;;4985418;28;20668;-44
2021/06/02 00:52:06;;;;;;;4.37;3.90;;;22.40;38.50;;;;;;4990239;28;20489;-48
2021/06/02 00:54:36;;;;;;;4.03;3.23;;;22.40;38.60;;;;;;4984619;28;20473;-47
2021/06/02 00:57:10;;;;;;;4.03;3.63;;;22.20;38.80;;;;;;4990616;28;20863;-47
2021/06/02 00:59:39;;;;;;;3.60;3.30;;;22.00;39.30;;;;;;4988840;28;20495;-47
2021/06/02 01:02:06;;;;;;;6.23;3.30;;;22.00;39.30;;;;;;4988129;28;20504;-47
2021/06/02 01:04:32;;;;;;;3.67;3.37;;;22.00;39.20;;;;;;4980948;28;20614;-43
2021/06/02 01:06:59;;;;;;;3.83;3.43;;;22.10;39.20;;;;;;4992645;28;20867;-43
2021/06/02 01:09:25;;;;;;;3.63;3.33;;;22.10;39.30;;;;;;4982529;28;20195;-43
2021/06/02 01:11:53;;;;;;;5.70;4.07;;;22.10;39.90;;;;;;4982990;28;20989;-44
2021/06/02 01:14:20;;;;;;;3.93;3.63;;;22.00;39.40;;;;;;4987455;28;20833;-44
2021/06/02 01:16:47;;;;;;;6.70;4.67;;;21.90;40.20;;;;;;4989261;28;20460;-47
2021/06/02 01:19:18;;;;;;;4.03;3.63;;;21.80;39.80;;;;;;4990484;28;20792;-45
2021/06/02 01:21:59;;;;;;;4.23;3.83;;;21.80;39.70;;;;;;4987463;28;20843;-44
2021/06/02 01:24:27;;;;;;;4.40;4.00;;;21.60;39.80;;;;;;4981918;28;20504;-43
2021/06/02 01:26:54;;;;;;;8.03;4.33;;;21.40;40.40;;;;;;4986578;28;20473;-45
2021/06/02 01:29:21;;;;;;;4.40;4.00;;;21.20;41.30;;;;;;4989253;28;20489;-47
2021/06/02 01:32:28;;;;;;;4.30;3.90;;;21.00;41.00;;;;;;4989113;28;20485;-45
2021/06/02 01:35:11;;;;;;;3.90;3.60;;;20.80;41.40;;;;;;4976793;28;20548;-44
2021/06/02 01:38:15;;;;;;;4.50;3.73;;;20.60;41.90;;;;;;4989599;28;20469;-45
2021/06/02 01:40:59;;;;;;;4.30;3.60;;;20.40;42.30;;;;;;4985474;28;20480;-44
2021/06/02 01:44:02;;;;;;;4.70;4.27;;;20.20;42.70;;;;;;4984587;28;20448;-44
2021/06/02 01:46:54;;;;;;;4.23;3.60;;;19.70;43.60;;;;;;4979515;28;20460;-44
2021/06/02 01:49:36;;;;;;;4.00;3.23;;;19.20;44.80;;;;;;4984671;28;20599;-43
2021/06/02 01:52:36;;;;;;;6.20;3.70;;;19.10;45.10;;;;;;4983256;28;20572;-45
2021/06/02 01:55:14;;;;;;;4.00;3.57;;;19.00;45.40;;;;;;4983548;28;20502;-44
2021/06/02 01:57:52;;;;;;;6.33;3.73;;;18.80;45.90;;;;;;4982486;28;20445;-44
2021/06/02 02:00:35;;;;;;;4.07;3.67;;;18.80;45.80;;;;;;4985445;28;20486;-44
2021/06/02 02:03:39;;;;;;;3.83;3.43;;;18.90;45.60;;;;;;4987327;28;20500;-43
2021/06/02 02:06:16;;;;;;;4.90;3.00;;;19.00;45.30;;;;;;4987930;28;20545;-47
2021/06/02 02:08:49;;;;;;;3.93;3.53;;;18.90;45.40;;;;;;4980642;28;20944;-44
2021/06/02 02:11:25;;;;;;;4.70;4.30;;;18.70;45.90;;;;;;4981065;28;20465;-43
2021/06/02 02:13:56;;;;;;;5.00;4.17;;;18.80;45.60;;;;;;4989770;28;20487;-44
2021/06/02 02:16:58;;;;;;;3.93;3.63;;;18.90;45.30;;;;;;4986758;28;20493;-43
2021/06/02 02:19:42;;;;;;;3.70;3.40;;;18.90;45.40;;;;;;4987288;28;20457;-44
2021/06/02 02:22:26;;;;;;;4.07;3.60;;;18.60;45.80;;;;;;4982932;28;20841;-47
2021/06/02 02:25:17;;;;;;;4.73;4.20;;;18.70;45.80;;;;;;4988619;28;20461;-43
2021/06/02 02:28:13;;;;;;;5.23;4.20;;;18.80;45.60;;;;;;4985956;28;20453;-43
2021/06/02 02:31:26;;;;;;;5.20;3.50;;;18.70;45.60;;;;;;4984185;28;20496;-44
2021/06/02 02:34:22;;;;;;;3.90;3.60;;;18.70;45.60;;;;;;4970124;28;20473;-43
2021/06/02 02:36:54;;;;;;;4.40;3.87;;;18.70;45.40;;;;;;4982467;28;20477;-44
2021/06/02 02:39:43;;;;;;;3.70;3.23;;;18.70;45.30;;;;;;4990848;28;20499;-46
2021/06/02 02:42:32;;;;;;;3.67;3.30;;;18.70;45.30;;;;;;4981572;28;20477;-43
2021/06/02 02:45:19;;;;;;;4.20;3.80;;;18.70;45.50;;;;;;4994082;28;20445;-44
2021/06/02 02:48:10;;;;;;;7.43;4.40;;;18.60;45.60;;;;;;4984552;28;20830;-43
2021/06/02 02:50:58;;;;;;;3.90;3.60;;;18.30;46.30;;;;;;4986123;28;20499;-43
2021/06/02 02:53:35;;;;;;;9.43;4.63;;;18.30;46.40;;;;;;4991024;28;20499;-44
2021/06/02 02:56:06;;;;;;;4.43;4.03;;;18.40;46.30;;;;;;4994122;28;20471;-43
2021/06/02 02:59:10;;;;;;;4.00;3.70;;;18.40;46.30;;;;;;4987963;28;20560;-43
2021/06/02 03:01:47;;;;;;;4.53;4.13;;;18.30;46.30;;;;;;4972388;28;20445;-43
2021/06/02 03:04:23;;;;;;;4.13;3.80;;;18.00;46.80;;;;;;4991866;28;20449;-44
2021/06/02 03:07:00;;;;;;;3.93;3.63;;;17.90;47.10;;;;;;4991253;28;20457;-43
2021/06/02 03:09:56;;;;;;;5.07;3.60;;;17.80;47.20;;;;;;4985255;28;20449;-44
2021/06/02 03:12:46;;;;;;;4.67;3.70;;;17.80;47.10;;;;;;4980410;28;20489;-43
2021/06/02 03:15:37;;;;;;;4.20;3.80;;;17.70;47.50;;;;;;4990182;28;21039;-43
2021/06/02 03:18:14;;;;;;;4.10;3.77;;;17.50;47.60;;;;;;4990639;28;20473;-45
2021/06/02 03:20:53;;;;;;;4.00;3.70;;;17.40;48.10;;;;;;4995246;28;20457;-44
2021/06/02 03:23:43;;;;;;;4.07;3.77;;;17.40;48.20;;;;;;4982151;28;20493;-44
2021/06/02 03:26:11;;;;;;;5.57;4.10;;;17.30;48.30;;;;;;4988552;28;20446;-45
2021/06/02 03:29:02;;;;;;;4.40;4.00;;;17.10;48.70;;;;;;4990276;28;20426;-44
2021/06/02 03:31:52;;;;;;;5.10;3.73;;;17.10;48.90;;;;;;4987657;28;20961;-43
2021/06/02 03:34:20;;;;;;;4.53;4.13;;;17.10;48.80;;;;;;4988369;28;20457;-43
2021/06/02 03:36:59;;;;;;;4.73;4.20;;;17.00;48.90;;;;;;4992665;28;20494;-45
2021/06/02 03:39:53;;;;;;;4.50;3.80;;;16.90;49.10;;;;;;4988218;28;20445;-44
2021/06/02 03:42:37;;;;;;;4.30;3.90;;;16.90;49.10;;;;;;4987083;28;20445;-43
2021/06/02 03:45:06;;;;;;;6.20;3.90;;;16.90;49.00;;;;;;4987191;28;20584;-44
2021/06/02 03:47:53;;;;;;;4.60;4.13;;;16.80;49.20;;;;;;4992660;28;20480;-43
2021/06/02 03:50:26;;;;;;;3.83;3.53;;;16.70;49.20;;;;;;4992314;28;20965;-44
2021/06/02 03:53:37;;;;;;;3.80;3.40;;;16.70;49.40;;;;;;4985578;28;20504;-43
2021/06/02 03:56:28;;;;;;;8.13;4.63;;;16.70;49.60;;;;;;4987652;28;20557;-44
2021/06/02 03:59:24;;;;;;;4.67;4.10;;;16.70;49.80;;;;;;4988818;28;20449;-43
2021/06/02 04:02:02;;;;;;;3.40;3.10;;;16.60;49.70;;;;;;4986863;28;20527;-43
2021/06/02 04:04:37;;;;;;;5.00;4.50;;;16.70;49.70;;;;;;4991624;28;20453;-43
2021/06/02 04:07:05;;;;;;;6.37;4.53;;;16.70;49.60;;;;;;4985749;28;20442;-43
2021/06/02 04:10:02;;;;;;;5.70;4.03;;;16.70;49.60;;;;;;4987487;28;20450;-43
2021/06/02 04:12:33;;;;;;;5.07;4.57;;;16.70;49.60;;;;;;4986983;28;20490;-45
2021/06/02 04:15:03;;;;;;;4.13;3.73;;;16.70;49.50;;;;;;4987195;28;20446;-44
2021/06/02 04:17:32;;;;;;;4.80;4.10;;;16.80;49.40;;;;;;4987560;28;20483;-43
2021/06/02 04:20:00;;;;;;;7.00;4.63;;;16.80;49.40;;;;;;4986004;28;20505;-43
2021/06/02 04:22:29;;;;;;;5.27;4.73;;;16.60;49.60;;;;;;4990355;28;20441;-44
2021/06/02 04:24:56;;;;;;;5.17;4.20;;;16.40;50.50;;;;;;4989352;28;20496;-43
2021/06/02 04:27:24;;;;;;;4.67;4.27;;;16.30;50.40;;;;;;4992100;28;20532;-43
2021/06/02 04:29:51;;;;;;;6.03;4.00;;;16.20;50.60;;;;;;4988525;28;20469;-43
2021/06/02 04:32:18;;;;;;;5.73;4.33;;;16.20;50.70;;;;;;4990726;28;20489;-45
2021/06/02 04:34:44;;;;;;;6.83;3.80;;;16.30;50.80;;;;;;4990067;28;20474;-43
2021/06/02 04:37:11;;;;;;;4.40;4.00;;;16.10;50.90;;;;;;4992387;28;20461;-42
2021/06/02 04:39:39;;;;;;;4.47;4.00;;;16.00;51.40;;;;;;4989577;28;20506;-43
2021/06/02 04:42:07;;;;;;;4.60;4.20;;;16.00;51.30;;;;;;4991149;28;20549;-42
2021/06/02 04:44:35;;;;;;;6.60;4.27;;;16.10;51.40;;;;;;4989202;28;20450;-43
2021/06/02 04:47:02;;;;;;;5.30;4.27;;;16.10;51.50;;;;;;4988272;28;20553;-43
2021/06/02 04:49:53;;;;;;;7.70;3.80;;;16.00;51.70;;;;;;4990037;28;20526;-44
2021/06/02 04:53:01;;;;;;;6.53;4.20;;;16.10;51.60;;;;;;4990028;28;20489;-43
2021/06/02 04:55:51;;;;;;;6.67;3.53;;;16.30;51.50;;;;;;4957793;28;20480;-43
2021/06/02 04:58:26;;;;;;;4.50;3.90;;;16.40;53.90;;;;;;4987041;28;20513;-44
2021/06/02 05:01:07;;;;;;;4.17;3.77;;;16.70;51.90;;;;;;4982498;28;20450;-43
2021/06/02 05:04:11;;;;;;;9.30;4.00;;;17.30;50.30;;;;;;4979984;28;21035;-45
2021/06/02 05:07:10;;;;;;;4.40;4.00;;;17.80;49.10;;;;;;4984728;28;20446;-43
2021/06/02 05:10:32;;;;;;;5.20;3.47;;;18.10;48.00;;;;;;4990588;28;20445;-44
2021/06/02 05:13:07;;;;;;;6.60;4.13;;;18.40;47.20;;;;;;4923452;29;20488;-43
2021/06/02 05:16:20;;;;;;;5.47;4.33;;;18.80;46.40;;;;;;4923607;29;20452;-43
2021/06/02 05:19:47;;;;;;;4.67;3.90;;;19.10;45.60;;;;;;4980314;28;20454;-43
2021/06/02 05:22:33;;;;;;;6.50;4.70;;;19.40;45.10;;;;;;4962758;28;20450;-43
2021/06/02 05:25:20;;;;;;;8.60;4.60;;;19.60;44.70;;;;;;4991039;28;20438;-43
2021/06/02 05:28:09;;;;;;;8.93;4.13;;;19.80;44.40;;;;;;4991332;28;20609;-44
2021/06/02 05:31:05;;;;;;;3.90;3.60;;;19.80;44.10;;;;;;4991108;28;20430;-43
2021/06/02 05:34:08;;;;;;;4.53;4.13;;;20.00;44.00;;;;;;4988707;28;20492;-44
2021/06/02 05:36:52;;;;;;;6.47;4.67;;;20.10;43.70;;;;;;4989605;28;20949;-48
2021/06/02 05:39:42;;;;;;;6.10;4.60;;;20.20;43.50;;;;;;4988606;28;20532;-44
2021/06/02 05:42:17;;;;;;;5.47;4.43;;;20.40;43.20;;;;;;4991206;28;22411;-44
2021/06/02 05:45:14;;;;;;;5.97;4.30;;;20.40;43.00;;;;;;4989071;28;20438;-43
2021/06/02 05:47:49;;;;;;;5.03;4.57;;;20.50;43.00;;;;;;4983116;28;20452;-43
2021/06/02 05:50:36;;;;;;;6.27;4.23;;;20.70;42.90;;;;;;4990038;28;20458;-44
2021/06/02 05:53:27;;;;;;;4.10;3.70;;;20.70;42.80;;;;;;4989294;28;20488;-46
2021/06/02 05:56:08;;;;;;;4.47;4.07;;;20.70;42.70;;;;;;4988687;28;20869;-46
2021/06/02 05:59:01;;;;;;;6.97;3.77;;;20.80;42.50;;;;;;4985694;28;20450;-42
2021/06/02 06:01:44;;;;;;;5.10;3.80;;;21.00;42.30;;;;;;4989126;28;20573;-45
2021/06/02 06:04:21;;;;;;;6.87;5.03;;;20.90;42.80;;;;;;4988391;28;20449;-43
2021/06/02 06:07:14;;;;;;;5.93;4.40;;;20.60;43.60;;;;;;4989957;28;20964;-42
2021/06/02 06:09:42;;;;;;;6.73;4.63;;;20.60;43.60;;;;;;4987902;28;20442;-44
2021/06/02 06:12:14;;;;;;;5.83;5.23;;;20.60;44.00;;;;;;4990537;28;20568;-45
2021/06/02 06:15:17;;;;;;;6.90;4.47;;;20.60;44.10;;;;;;4989157;28;20882;-44
2021/06/02 06:17:51;;;;;;;6.70;4.80;;;20.70;43.80;;;;;;4954697;28;20611;-42
2021/06/02 06:20:36;;;;;;;5.10;4.60;;;20.90;43.40;;;;;;4991760;28;20434;-45
2021/06/02 06:23:07;;;;;;;6.37;4.20;;;21.00;43.20;;;;;;4991552;28;20565;-46
2021/06/02 06:25:39;;;;;;;4.53;3.30;;;21.00;43.50;;;;;;4991611;28;20533;-43
2021/06/02 06:28:09;;;;;;;4.93;4.10;;;21.20;43.60;;;;;;4991972;28;20426;-42
2021/06/02 06:30:39;;;;;;;4.43;3.93;;;21.40;43.20;;;;;;4992069;28;20442;-42
2021/06/02 06:33:14;;;;;;;6.60;4.53;;;21.50;42.50;;;;;;4992024;28;20496;-46
2021/06/02 06:35:43;;;;;;;6.23;4.73;;;21.70;42.20;;;;;;4992057;28;20441;-43
2021/06/02 06:38:14;;;;;;;6.40;4.90;;;21.70;41.50;;;;;;4991617;28;20417;-44
2021/06/02 06:40:40;;;;;;;10.17;5.50;;;21.80;41.90;;;;;;4983104;28;20612;-42
2021/06/02 06:43:10;;;;;;;7.10;5.03;;;21.80;41.30;;;;;;4990173;28;20774;-45
2021/06/02 06:45:41;;;;;;;6.27;4.73;;;21.90;40.70;;;;;;4991583;28;20426;-45
2021/06/02 06:48:13;;;;;;;5.30;4.10;;;22.00;40.50;;;;;;4991547;28;20430;-43
2021/06/02 06:50:44;;;;;;;3.93;3.63;;;22.10;40.20;;;;;;4991989;28;20556;-46
2021/06/02 06:53:12;;;;;;;4.67;3.93;;;22.10;40.40;;;;;;4991235;28;20497;-45
2021/06/02 06:55:38;;;;;;;3.73;3.40;;;22.30;40.60;;;;;;4991920;28;20426;-45
2021/06/02 06:58:06;;;;;;;5.20;3.80;;;22.50;40.10;;;;;;4985354;28;20481;-46
2021/06/02 07:00:34;;;;;;;4.10;3.33;;;22.70;39.40;;;;;;4990171;28;20915;-43
2021/06/02 07:03:00;;;;;;;3.47;3.17;;;22.80;39.00;;;;;;4992015;28;20517;-46
2021/06/02 07:05:27;;;;;;;5.00;3.23;;;22.80;37.20;;;;;;4991406;28;20429;-47
2021/06/02 07:07:53;;;;;;;3.27;2.83;;;23.00;37.20;;;;;;4990820;28;20521;-47
2021/06/02 07:10:21;;;;;;;3.50;3.20;;;23.10;36.60;;;;;;4990522;28;20513;-45
2021/06/02 07:12:47;;;;;;;4.20;2.83;;;23.30;36.80;;;;;;4991710;28;20309;-47
2021/06/02 07:15:15;;;;;;;6.17;3.83;;;23.10;37.70;;;;;;4989948;28;20918;-47
2021/06/02 07:17:45;;;;;;;3.10;2.60;;;23.50;37.50;;;;;;4991246;28;20492;-46
2021/06/02 07:20:17;;;;;;;3.87;3.20;;;23.90;36.40;;;;;;4991007;28;20441;-44
2021/06/02 07:22:45;;;;;;;2.80;2.60;;;23.90;35.70;;;;;;4991695;28;20778;-46
2021/06/02 07:25:17;;;;;;;3.50;3.10;;;24.00;36.10;;;;;;4993938;28;20429;-46
2021/06/02 07:27:45;;;;;;;3.50;2.90;;;24.20;35.60;;;;;;4994666;28;20414;-47
2021/06/02 07:30:13;;;;;;;4.33;3.00;;;24.30;35.70;;;;;;4994432;28;20448;-46
2021/06/02 07:32:38;;;;;;;2.93;2.73;;;24.20;35.90;;;;;;4994900;28;20846;-44
2021/06/02 07:35:05;;;;;;;3.30;3.00;;;24.50;35.80;;;;;;4992672;28;20430;-47
2021/06/02 07:37:32;;;;;;;3.20;2.90;;;24.80;35.40;;;;;;4994509;28;20209;-47
2021/06/02 07:39:58;;;;;;;5.00;3.40;;;25.10;35.10;;;;;;4992758;28;20855;-43
2021/06/02 07:42:23;;;;;;;2.70;2.50;;;25.30;35.10;;;;;;4994971;28;20453;-47
2021/06/02 07:44:49;;;;;;;2.83;2.53;;;25.60;34.50;;;;;;4994178;28;20249;-47
2021/06/02 07:47:15;;;;;;;5.10;2.90;;;25.80;34.00;;;;;;4994336;28;20234;-43
2021/06/02 07:49:40;;;;;;;3.10;2.80;;;25.80;34.80;;;;;;4994036;28;20717;-46
2021/06/02 07:52:06;;;;;;;3.20;2.70;;;26.10;34.30;;;;;;4994633;28;20234;-44
2021/06/02 07:54:32;;;;;;;2.93;2.63;;;26.10;33.00;;;;;;4994077;28;20721;-46
2021/06/02 07:56:57;;;;;;;6.13;2.90;;;26.40;33.30;;;;;;4994273;28;20541;-43
2021/06/02 07:59:23;;;;;;;3.30;2.87;;;26.60;33.40;;;;;;4986779;28;20238;-44
2021/06/02 08:01:49;;;;;;;2.90;2.43;;;26.70;32.10;;;;;;4992714;28;20199;-47
2021/06/02 08:04:15;;;;;;;2.90;2.70;;;27.00;32.50;;;;;;4993863;28;20208;-45
2021/06/02 08:06:40;;;;;;;4.73;2.90;;;27.20;33.30;;;;;;4994389;28;20426;-43
2021/06/02 08:09:07;;;;;;;4.10;2.80;;;27.40;32.70;;;;;;4993688;28;20244;-47
2021/06/02 08:11:33;;;;;;;6.20;3.00;;;27.50;32.40;;;;;;4994324;28;20214;-46
2021/06/02 08:13:59;;;;;;;7.37;2.87;;;27.40;30.90;;;;;;4993965;28;20422;-46
2021/06/02 08:16:25;;;;;;;3.50;2.70;;;27.60;32.40;;;;;;4993739;28;20253;-47
2021/06/02 08:18:52;;;;;;;5.10;2.67;;;27.80;32.90;;;;;;4993694;28;20462;-47
2021/06/02 08:21:18;;;;;;;3.67;2.87;;;27.60;30.10;;;;;;4993999;28;20937;-46
2021/06/02 08:23:43;;;;;;;3.20;2.73;;;27.40;30.00;;;;;;4993793;28;20487;-47
2021/06/02 08:26:09;;;;;;;3.77;3.00;;;27.50;29.80;;;;;;4993839;28;20197;-47
2021/06/02 08:28:35;;;;;;;2.70;2.50;;;27.80;30.10;;;;;;4991455;28;20214;-43
2021/06/02 08:31:01;;;;;;;6.10;2.73;;;27.90;29.40;;;;;;4994080;28;20199;-47
2021/06/02 08:33:27;;;;;;;2.67;2.47;;;28.20;29.70;;;;;;4992202;28;20512;-47
2021/06/02 08:35:53;;;;;;;3.10;2.80;;;28.30;29.40;;;;;;4992650;28;20426;-47
2021/06/02 08:38:19;;;;;;;2.67;2.47;;;28.60;29.00;;;;;;4992540;28;20194;-44
2021/06/02 08:40:44;;;;;;;3.43;2.97;;;28.70;29.10;;;;;;4993811;28;20445;-46
2021/06/02 08:43:11;;;;;;;2.93;2.73;;;28.70;28.60;;;;;;4993374;28;20639;-48
2021/06/02 08:45:37;;;;;;;3.07;2.77;;;29.00;29.10;;;;;;4993948;28;20218;-43
2021/06/02 08:48:05;;;;;;;3.83;2.77;;;29.10;28.90;;;;;;4993218;28;20521;-45
2021/06/02 08:50:30;;;;;;;6.70;2.70;;;29.30;28.30;;;;;;4993176;28;20456;-44
2021/06/02 08:53:01;;;;;;;2.50;2.30;;;29.30;27.80;;;;;;4993552;28;20975;-43
2021/06/02 08:55:27;;;;;;;2.90;2.60;;;29.50;28.60;;;;;;4991564;28;20206;-48
2021/06/02 08:57:53;;;;;;;3.63;2.50;;;29.60;27.80;;;;;;4993238;28;20440;-43
2021/06/02 09:00:21;;;;;;;2.50;2.10;;;29.80;27.70;;;;;;4985966;28;21010;-43
2021/06/02 09:02:53;;;;;;;3.60;3.07;;;30.00;26.40;;;;;;4988689;28;20667;-43
2021/06/02 09:05:18;;;;;;;3.90;2.70;;;30.00;26.90;;;;;;4992660;28;20464;-47
2021/06/02 09:07:48;;;;;;;3.17;2.80;;;30.00;27.00;;;;;;4992792;28;20765;-45
2021/06/02 09:10:14;;;;;;;2.97;2.50;;;30.20;27.10;;;;;;4992730;28;20195;-43
2021/06/02 09:12:41;;;;;;;3.03;2.70;;;30.30;26.50;;;;;;4993083;28;20489;-45
2021/06/02 09:15:14;;;;;;;2.53;2.33;;;30.50;25.50;;;;;;4991451;28;20199;-43
2021/06/02 09:17:52;;;;;;;3.03;2.73;;;30.60;25.70;;;;;;4992763;28;20800;-47
2021/06/02 09:20:40;;;;;;;4.00;2.90;;;30.60;25.40;;;;;;4991543;28;20900;-43
2021/06/02 09:23:29;;;;;;;3.60;2.00;;;30.80;24.90;;;;;;4992834;28;20437;-43
2021/06/02 09:26:10;;;;;;;2.50;2.20;;;31.10;25.20;;;;;;4993071;28;20434;-47
2021/06/02 09:28:58;;;;;;;3.33;3.03;;;31.20;25.80;;;;;;4991698;28;20524;-47
2021/06/02 09:31:44;;;;;;;2.50;2.30;;;31.30;24.70;;;;;;4993077;28;20524;-45
2021/06/02 09:34:22;;;;;;;2.77;2.57;;;31.50;26.30;;;;;;4991644;28;20828;-43
2021/06/02 09:37:02;;;;;;;3.00;2.30;;;31.90;24.60;;;;;;4992147;28;20551;-43
2021/06/02 09:39:28;;;;;;;2.50;2.30;;;32.00;24.70;;;;;;4992636;28;20504;-43
2021/06/02 09:41:57;;;;;;;2.43;2.23;;;32.30;24.60;;;;;;4992782;28;21002;-43
2021/06/02 09:44:25;;;;;;;2.47;2.30;;;32.40;22.80;;;;;;4991928;28;20213;-44
2021/06/02 09:47:00;;;;;;;2.90;2.47;;;32.60;22.20;;;;;;4990571;28;20481;-47
2021/06/02 09:49:26;;;;;;;2.10;2.00;;;32.20;22.30;;;;;;4992004;28;20445;-47
2021/06/02 09:51:53;;;;;;;2.63;2.30;;;32.30;23.50;;;;;;4992454;28;20473;-47
2021/06/02 09:54:23;;;;;;;3.67;2.30;;;32.50;22.80;;;;;;4991730;28;20474;-47
2021/06/02 09:56:50;;;;;;;1.93;1.83;;;32.80;22.70;;;;;;4992228;28;20789;-46
2021/06/02 09:59:16;;;;;;;2.40;2.20;;;33.10;21.60;;;;;;4992091;28;20432;-48
2021/06/02 10:02:01;;;;;;;3.47;2.43;;;33.30;21.60;;;;;;4981833;28;20451;-48
2021/06/02 10:04:29;;;;;;;3.10;1.80;;;33.50;21.60;;;;;;4987021;28;20194;-47
2021/06/02 10:06:55;;;;;;;2.53;2.33;;;33.70;21.30;;;;;;4991888;28;20524;-48
2021/06/02 10:09:31;;;;;;;2.80;2.40;;;33.70;21.10;;;;;;4991750;28;20504;-45
2021/06/02 10:12:10;;;;;;;2.83;2.50;;;33.90;20.40;;;;;;4992434;28;20301;-47
2021/06/02 10:14:40;;;;;;;3.00;2.00;;;33.90;21.80;;;;;;4990211;28;20449;-47
2021/06/02 10:17:29;;;;;;;4.10;2.27;;;33.90;19.80;;;;;;4991912;28;20422;-44
2021/06/02 10:19:55;;;;;;;3.10;2.60;;;33.80;20.10;;;;;;4991659;28;20845;-47
2021/06/02 10:22:30;;;;;;;2.90;2.53;;;33.80;20.50;;;;;;4992028;28;20952;-45
2021/06/02 10:25:01;;;;;;;2.40;2.20;;;33.80;20.50;;;;;;4991561;28;20508;-45
2021/06/02 10:27:27;;;;;;;2.60;2.40;;;33.90;20.50;;;;;;4991396;28;20537;-44
2021/06/02 10:29:54;;;;;;;2.63;2.43;;;34.00;20.30;;;;;;4991778;28;20438;-45
2021/06/02 10:32:20;;;;;;;2.07;1.97;;;34.20;21.50;;;;;;4991983;28;20968;-47
2021/06/02 10:34:47;;;;;;;4.10;2.27;;;34.40;20.50;;;;;;4991769;28;20947;-44
2021/06/02 10:37:16;;;;;;;2.30;2.20;;;34.40;20.20;;;;;;4991463;28;20428;-47
2021/06/02 10:40:04;;;;;;;2.43;2.30;;;34.50;20.20;;;;;;4990908;28;20430;-47
2021/06/02 10:42:43;;;;;;;2.60;2.40;;;34.50;19.90;;;;;;4980361;28;20495;-44
2021/06/02 10:45:28;;;;;;;2.93;2.53;;;34.60;20.00;;;;;;4991378;28;20779;-44
2021/06/02 10:47:56;;;;;;;2.90;2.20;;;34.70;21.50;;;;;;4991929;28;20528;-44
2021/06/02 10:50:43;;;;;;;2.67;2.47;;;34.90;20.80;;;;;;4991768;28;20977;-49
2021/06/02 10:53:18;;;;;;;3.60;2.20;;;35.10;19.90;;;;;;4991465;28;20524;-47
2021/06/02 10:55:46;;;;;;;3.07;2.60;;;35.10;19.70;;;;;;4991990;28;20433;-44
2021/06/02 10:58:47;;;;;;;2.50;2.30;;;35.20;19.50;;;;;;4990777;28;20434;-43
2021/06/02 11:01:16;;;;;;;2.60;2.17;;;35.20;19.50;;;;;;4995543;28;20438;-43
2021/06/02 11:03:44;;;;;;;2.47;2.00;;;34.80;19.20;;;;;;4984165;28;21090;-44
2021/06/02 11:06:13;;;;;;;2.50;2.30;;;34.60;20.50;;;;;;4994394;28;20480;-43
2021/06/02 11:08:47;;;;;;;3.90;2.07;;;34.70;22.10;;;;;;4994280;28;20507;-43
2021/06/02 11:11:29;;;;;;;5.47;2.53;;;34.70;20.50;;;;;;4995504;28;20429;-43
2021/06/02 11:14:16;;;;;;;2.47;2.30;;;34.70;22.60;;;;;;4994832;28;20504;-45
2021/06/02 11:16:49;;;;;;;2.70;2.50;;;35.00;21.60;;;;;;4994816;28;20465;-43
2021/06/02 11:19:17;;;;;;;1.87;1.70;;;35.30;20.70;;;;;;4994818;28;20448;-44
2021/06/02 11:21:51;;;;;;;2.23;2.13;;;35.30;21.30;;;;;;4995408;28;20430;-44
2021/06/02 11:27:13;;;;;;;2.40;2.20;;;35.50;22.10;;;;;;4994990;28;20469;-43
2021/06/02 11:29:59;;;;;;;3.33;1.90;;;35.50;21.30;;;;;;4994411;28;20441;-43
2021/06/02 11:32:26;;;;;;;2.37;2.17;;;35.80;21.20;;;;;;4968297;28;20540;-44
2021/06/02 11:34:53;;;;;;;3.80;2.00;;;36.00;21.50;;;;;;4992800;28;20977;-46
2021/06/02 11:37:22;;;;;;;4.40;2.17;;;36.10;20.40;;;;;;4994277;28;20433;-44
2021/06/02 11:39:53;;;;;;;2.43;2.33;;;36.20;19.70;;;;;;4994298;28;20441;-43
2021/06/02 11:42:56;;;;;;;3.13;2.57;;;36.20;20.90;;;;;;4982290;28;20437;-44
2021/06/02 11:45:22;;;;;;;2.60;2.40;;;36.10;20.80;;;;;;4896999;29;20679;-43
2021/06/02 11:47:55;;;;;;;2.10;2.00;;;36.20;20.70;;;;;;4959634;28;20522;-46
2021/06/02 11:50:25;;;;;;;3.90;2.50;;;36.40;21.00;;;;;;4994106;28;20186;-47
2021/06/02 11:52:55;;;;;;;2.20;2.10;;;36.40;19.90;;;;;;4994549;28;20969;-46
2021/06/02 11:55:22;;;;;;;2.30;2.10;;;36.50;19.60;;;;;;4993966;28;20430;-43
2021/06/02 11:57:52;;;;;;;2.23;2.03;;;36.50;18.90;;;;;;4994353;28;20460;-48
2021/06/02 12:00:20;;;;;;;2.03;1.93;;;36.60;20.30;;;;;;4992529;28;20921;-45
2021/06/02 12:02:51;;;;;;;2.20;2.00;;;36.50;20.70;;;;;;4988889;28;20454;-44
2021/06/02 12:05:25;;;;;;;2.17;2.07;;;36.50;20.50;;;;;;4992124;28;20801;-44
2021/06/02 12:07:56;;;;;;;2.10;2.00;;;36.40;20.50;;;;;;4993742;28;20933;-44
2021/06/02 12:10:23;;;;;;;3.97;2.20;;;36.40;20.00;;;;;;4993600;28;20444;-48
2021/06/02 12:12:50;;;;;;;3.43;1.87;;;36.50;19.80;;;;;;4993970;28;20493;-45
2021/06/02 12:15:17;;;;;;;2.13;2.03;;;36.60;20.40;;;;;;4993579;28;20808;-45
2021/06/02 12:17:45;;;;;;;2.90;2.00;;;36.70;20.10;;;;;;4991017;28;20928;-44
2021/06/02 12:20:20;;;;;;;2.67;2.07;;;36.60;19.20;;;;;;4984964;28;20433;-46
2021/06/02 12:22:47;;;;;;;2.70;2.33;;;36.70;19.40;;;;;;4994482;28;20449;-45
2021/06/02 12:25:22;;;;;;;2.60;2.40;;;36.70;18.30;;;;;;4993397;28;20465;-45
2021/06/02 12:27:49;;;;;;;2.60;2.40;;;36.80;18.30;;;;;;4992158;28;20430;-44
2021/06/02 12:30:17;;;;;;;2.43;2.00;;;36.80;18.00;;;;;;4993492;28;20457;-47
2021/06/02 12:32:52;;;;;;;2.53;2.20;;;36.80;18.20;;;;;;4993860;28;20587;-45
2021/06/02 12:35:26;;;;;;;4.33;2.13;;;36.90;17.80;;;;;;4993398;28;20445;-45
2021/06/02 12:38:13;;;;;;;1.93;1.83;;;36.80;18.10;;;;;;4992492;28;20452;-44
2021/06/02 12:41:01;;;;;;;1.93;1.83;;;35.40;18.00;;;;;;4993397;28;20434;-45
2021/06/02 12:43:39;;;;;;;2.43;2.23;;;35.30;19.20;;;;;;4993207;28;20442;-43
2021/06/02 12:46:12;;;;;;;2.13;2.03;;;35.60;19.70;;;;;;4993233;28;20437;-48
2021/06/02 12:48:39;;;;;;;2.10;2.00;;;35.90;18.30;;;;;;4993019;28;20767;-46
2021/06/02 12:51:06;;;;;;;2.37;2.10;;;36.00;18.30;;;;;;4993315;28;20469;-46
2021/06/02 12:53:40;;;;;;;2.10;2.00;;;36.00;19.20;;;;;;4991503;28;21048;-47
2021/06/02 12:56:07;;;;;;;3.43;2.10;;;36.20;19.00;;;;;;4993138;28;20449;-46
2021/06/02 12:58:33;;;;;;;4.27;2.10;;;36.30;19.60;;;;;;4993044;28;20429;-44
2021/06/02 13:01:07;;;;;;;2.13;1.90;;;36.30;18.30;;;;;;4993350;28;20484;-47
2021/06/02 13:03:35;;;;;;;2.70;1.87;;;36.30;18.80;;;;;;4989196;28;20448;-45
2021/06/02 13:06:01;;;;;;;2.10;1.90;;;36.50;18.70;;;;;;4989228;28;20441;-48
2021/06/02 13:08:40;;;;;;;1.90;1.80;;;36.60;18.60;;;;;;4992880;28;20422;-48
2021/06/02 13:11:08;;;;;;;1.47;1.33;;;36.80;17.60;;;;;;4993150;28;20191;-45
2021/06/02 13:13:34;;;;;;;1.90;1.80;;;36.60;18.10;;;;;;4992634;28;20961;-46
2021/06/02 13:16:00;;;;;;;5.80;1.93;;;36.70;18.50;;;;;;4992924;28;20532;-45
2021/06/02 13:18:31;;;;;;;1.97;1.87;;;36.70;18.20;;;;;;4992539;28;20426;-48
2021/06/02 13:21:08;;;;;;;2.50;1.60;;;36.70;18.10;;;;;;4991438;28;20772;-46
2021/06/02 13:23:34;;;;;;;1.87;1.77;;;36.80;18.50;;;;;;4992117;28;20437;-49
2021/06/02 13:26:14;;;;;;;2.40;1.70;;;36.70;18.60;;;;;;4992554;28;20433;-45
2021/06/02 13:29:00;;;;;;;1.97;1.60;;;36.40;18.80;;;;;;4992291;28;20437;-49
2021/06/02 13:31:39;;;;;;;3.60;2.13;;;36.40;19.20;;;;;;4992606;28;20449;-48